Time;durP1;ratioP1;P1;durP2;ratioP2;P2;SDS_P1;SDS_P2;PMS_P1;PMS_P2;Temp;Humidity;BMP_temperature;BMP_pressure;BME280_temperature;BME280_humidity;BME280_pressure;Samples;Min_cycle;Max_cycle;Signal;HPM_P1;HPM_P2
2021/12/01 00:02:05;;;;;;;0.90;0.90;;;5.20;69.50;;;;;;5052463;28;20422;-88
2021/12/01 00:04:30;;;;;;;0.90;0.90;;;5.20;70.60;;;;;;5051781;28;20216;-89
2021/12/01 00:06:56;;;;;;;1.23;1.13;;;5.20;71.40;;;;;;5052375;28;20178;-88
2021/12/01 00:09:22;;;;;;;2.83;1.20;;;5.20;71.50;;;;;;5052235;28;20211;-88
2021/12/01 00:11:47;;;;;;;1.00;1.00;;;5.20;72.80;;;;;;5052877;28;20180;-88
2021/12/01 00:14:13;;;;;;;0.97;0.93;;;5.20;73.40;;;;;;5052555;28;20230;-88
2021/12/01 00:16:39;;;;;;;1.17;1.07;;;5.10;74.40;;;;;;5054524;28;20219;-88
2021/12/01 00:19:05;;;;;;;1.03;1.00;;;5.10;72.50;;;;;;5052695;28;20422;-88
2021/12/01 00:21:30;;;;;;;1.40;1.30;;;5.10;73.20;;;;;;5052041;28;20184;-86
2021/12/01 00:23:56;;;;;;;1.20;1.10;;;5.10;74.70;;;;;;5051891;28;20587;-88
2021/12/01 00:26:22;;;;;;;1.70;1.60;;;5.00;73.50;;;;;;5052303;28;20176;-88
2021/12/01 00:28:47;;;;;;;1.00;1.00;;;5.00;76.90;;;;;;5052383;28;20230;-87
2021/12/01 00:31:13;;;;;;;1.37;1.27;;;5.00;76.60;;;;;;5051802;28;20176;-87
2021/12/01 00:33:41;;;;;;;0.90;0.90;;;5.00;77.60;;;;;;5052039;28;20180;-88
2021/12/01 00:36:08;;;;;;;1.00;0.80;;;4.90;76.40;;;;;;5051304;28;20180;-89
2021/12/01 00:38:35;;;;;;;1.23;1.13;;;5.00;77.50;;;;;;5052187;28;20461;-88
2021/12/01 00:41:03;;;;;;;0.97;0.97;;;5.00;78.50;;;;;;5051340;28;20987;-88
2021/12/01 00:43:28;;;;;;;2.17;1.37;;;5.00;77.50;;;;;;5051406;28;20519;-88
2021/12/01 00:46:00;;;;;;;1.13;1.03;;;5.00;77.50;;;;;;5051497;28;20841;-87
2021/12/01 00:48:27;;;;;;;1.10;1.10;;;5.00;77.50;;;;;;5052936;28;20786;-88
2021/12/01 00:50:54;;;;;;;0.80;0.80;;;5.00;77.50;;;;;;5054106;28;20411;-88
2021/12/01 00:53:19;;;;;;;0.83;0.83;;;5.00;77.10;;;;;;5053162;28;20417;-89
2021/12/01 00:55:45;;;;;;;1.30;1.07;;;5.00;78.10;;;;;;5052335;28;20418;-89
2021/12/01 00:58:15;;;;;;;1.37;0.87;;;4.90;79.10;;;;;;5052092;28;20430;-88
2021/12/01 01:00:42;;;;;;;1.93;1.00;;;4.90;77.40;;;;;;5051732;28;20430;-88
2021/12/01 01:03:08;;;;;;;0.80;0.80;;;5.00;77.50;;;;;;5052128;28;20488;-89
2021/12/01 01:05:35;;;;;;;1.43;1.20;;;4.90;75.10;;;;;;5052795;28;20414;-89
2021/12/01 01:08:00;;;;;;;1.30;1.00;;;4.90;75.60;;;;;;5052684;28;20472;-88
2021/12/01 01:18:22;;;;;;;1.30;1.10;;;4.90;72.60;;;;;;5054596;28;20486;-89
2021/12/01 01:20:48;;;;;;;0.97;0.87;;;5.00;73.90;;;;;;5053467;28;20446;-89
2021/12/01 01:23:14;;;;;;;1.10;1.10;;;5.00;75.90;;;;;;5053354;28;20215;-89
2021/12/01 01:25:40;;;;;;;0.80;0.80;;;5.00;76.90;;;;;;5054692;28;20410;-88
2021/12/01 01:28:05;;;;;;;1.20;1.10;;;5.00;75.80;;;;;;5053281;28;20180;-89
2021/12/01 01:30:32;;;;;;;1.17;1.07;;;5.00;74.30;;;;;;5053165;28;20187;-90
2021/12/01 01:32:58;;;;;;;1.20;1.10;;;5.00;73.10;;;;;;5053072;28;20176;-89
2021/12/01 01:35:24;;;;;;;1.20;0.83;;;5.00;74.60;;;;;;5053305;28;20511;-89
2021/12/01 01:37:49;;;;;;;1.43;1.33;;;5.00;71.20;;;;;;5052689;28;20406;-89
2021/12/01 01:40:16;;;;;;;1.37;1.30;;;5.10;71.50;;;;;;5053215;28;20178;-88
2021/12/01 01:42:41;;;;;;;1.40;1.30;;;5.00;72.60;;;;;;5020585;28;20240;-87
2021/12/01 01:45:08;;;;;;;1.00;1.00;;;5.10;74.50;;;;;;5047661;28;20467;-86
2021/12/01 01:47:35;;;;;;;1.50;1.40;;;5.00;71.80;;;;;;5030577;28;20418;-87
2021/12/01 01:50:17;;;;;;;1.40;1.30;;;5.10;71.70;;;;;;5030634;28;20419;-86
2021/12/01 01:52:43;;;;;;;1.27;1.17;;;5.10;72.00;;;;;;5031359;28;20412;-88
2021/12/01 01:55:09;;;;;;;1.67;1.20;;;5.10;72.30;;;;;;5033170;28;20853;-89
2021/12/01 01:57:34;;;;;;;1.60;1.50;;;5.10;72.70;;;;;;5033258;28;20177;-87
2021/12/01 02:00:00;;;;;;;1.37;1.13;;;5.10;71.80;;;;;;5031140;28;20180;-88
2021/12/01 02:02:26;;;;;;;3.07;1.77;;;5.10;71.30;;;;;;5029721;28;20275;-89
2021/12/01 02:04:52;;;;;;;1.47;1.37;;;5.10;72.50;;;;;;5033036;28;20530;-88
2021/12/01 02:07:17;;;;;;;1.37;1.27;;;5.10;72.70;;;;;;5032673;28;20204;-87
2021/12/01 02:09:43;;;;;;;4.27;1.60;;;5.10;72.00;;;;;;5032174;28;20181;-88
2021/12/01 02:12:09;;;;;;;1.60;1.50;;;5.10;71.30;;;;;;5032769;28;20274;-88
2021/12/01 02:14:35;;;;;;;2.00;1.90;;;5.10;71.50;;;;;;5034498;28;20412;-89
2021/12/01 02:17:01;;;;;;;1.77;1.53;;;5.10;72.30;;;;;;5031766;28;20427;-89
2021/12/01 02:19:28;;;;;;;2.07;1.53;;;5.10;71.70;;;;;;5033918;28;20184;-90
2021/12/01 02:21:54;;;;;;;1.67;1.57;;;5.10;71.30;;;;;;5033645;28;20426;-90
2021/12/01 02:24:22;;;;;;;1.40;1.30;;;5.20;71.00;;;;;;5032650;28;20471;-90
2021/12/01 02:27:19;;;;;;;1.43;1.33;;;5.20;70.70;;;;;;5033490;28;20637;-89
2021/12/01 02:29:45;;;;;;;1.37;1.30;;;5.20;71.90;;;;;;5030916;28;20407;-89
2021/12/01 02:32:11;;;;;;;1.80;1.70;;;5.20;71.60;;;;;;5031014;28;20415;-89
2021/12/01 02:34:39;;;;;;;1.60;1.50;;;5.20;71.30;;;;;;5031632;28;20184;-89
2021/12/01 02:37:06;;;;;;;1.67;1.57;;;5.20;71.80;;;;;;5031335;28;20215;-90
2021/12/01 02:39:31;;;;;;;1.77;1.63;;;5.20;71.60;;;;;;5033251;28;20423;-90
2021/12/01 02:45:19;;;;;;;1.40;1.30;;;5.30;70.60;;;;;;5035102;28;20168;-91
2021/12/01 02:47:45;;;;;;;1.47;1.17;;;5.20;70.70;;;;;;5033919;28;20773;-89
2021/12/01 02:50:11;;;;;;;1.27;1.17;;;5.20;71.90;;;;;;5033616;28;20173;-90
2021/12/01 02:52:37;;;;;;;1.27;1.17;;;5.30;70.30;;;;;;5033799;28;20491;-90
2021/12/01 02:55:05;;;;;;;1.40;1.30;;;5.30;70.60;;;;;;5033439;28;20518;-90
2021/12/01 02:57:50;;;;;;;1.10;1.00;;;5.30;71.00;;;;;;5034071;28;20648;-89
2021/12/01 03:00:17;;;;;;;1.90;1.47;;;5.30;68.50;;;;;;5034233;28;20407;-91
2021/12/01 03:02:45;;;;;;;1.50;1.20;;;5.40;69.70;;;;;;5033804;28;20418;-90
2021/12/01 03:05:11;;;;;;;1.40;1.30;;;5.40;71.50;;;;;;5033482;28;20977;-89
2021/12/01 03:07:37;;;;;;;1.30;1.13;;;5.30;70.30;;;;;;5033425;28;20465;-88
2021/12/01 03:10:05;;;;;;;1.23;1.13;;;5.30;69.40;;;;;;5033615;28;20426;-90
2021/12/01 03:12:34;;;;;;;1.47;1.37;;;5.40;69.20;;;;;;5034635;28;20416;-89
2021/12/01 03:15:00;;;;;;;1.50;1.40;;;5.40;69.80;;;;;;5034545;28;20423;-89
2021/12/01 03:17:27;;;;;;;0.93;0.90;;;5.40;69.50;;;;;;5034223;28;20470;-90
2021/12/01 03:19:53;;;;;;;0.70;0.70;;;5.40;68.00;;;;;;5033962;28;20423;-90
2021/12/01 03:22:19;;;;;;;1.40;1.30;;;5.40;68.10;;;;;;5035126;28;20418;-89
2021/12/01 03:25:10;;;;;;;1.40;1.30;;;5.40;67.80;;;;;;5037560;28;20462;-89
2021/12/01 03:27:44;;;;;;;1.43;1.10;;;5.50;67.50;;;;;;5038360;28;20161;-90
2021/12/01 03:30:12;;;;;;;1.03;1.03;;;5.50;68.70;;;;;;5037751;28;20398;-90
2021/12/01 03:32:43;;;;;;;1.33;1.20;;;5.50;68.40;;;;;;5037550;28;20442;-90
2021/12/01 03:35:11;;;;;;;1.27;1.17;;;5.50;70.40;;;;;;5037311;28;20488;-90
2021/12/01 03:37:38;;;;;;;1.20;1.13;;;5.50;69.50;;;;;;5037303;28;20407;-89
2021/12/01 03:40:05;;;;;;;1.10;1.10;;;5.50;67.70;;;;;;5037182;28;20419;-91
2021/12/01 03:42:31;;;;;;;2.07;1.50;;;5.50;68.10;;;;;;5035379;28;20502;-90
2021/12/01 03:44:58;;;;;;;1.37;1.27;;;5.50;68.10;;;;;;5035072;28;20828;-89
2021/12/01 03:47:25;;;;;;;1.13;1.03;;;5.50;68.10;;;;;;5035620;28;20414;-89
2021/12/01 03:49:51;;;;;;;1.10;1.10;;;5.50;68.10;;;;;;5034888;28;20430;-90
2021/12/01 03:52:17;;;;;;;1.33;1.10;;;5.50;68.10;;;;;;5034667;28;20479;-90
2021/12/01 03:54:45;;;;;;;1.20;1.10;;;5.60;68.20;;;;;;5034514;28;20454;-90
2021/12/01 03:57:11;;;;;;;1.40;1.30;;;5.60;68.80;;;;;;5034435;28;20912;-90
2021/12/01 03:59:38;;;;;;;1.23;1.10;;;5.60;68.70;;;;;;5034181;28;20511;-90
2021/12/01 04:02:04;;;;;;;1.27;1.27;;;5.60;68.30;;;;;;5051883;28;20779;-89
2021/12/01 04:04:30;;;;;;;1.50;1.40;;;5.60;70.30;;;;;;5035005;28;20463;-89
2021/12/01 04:06:56;;;;;;;1.20;1.10;;;5.50;70.40;;;;;;5035284;28;20825;-89
2021/12/01 04:09:22;;;;;;;1.47;1.33;;;5.60;70.50;;;;;;5035726;28;20173;-90
2021/12/01 04:11:48;;;;;;;1.20;1.07;;;5.50;69.50;;;;;;5034940;28;20241;-90
2021/12/01 04:14:14;;;;;;;1.60;1.50;;;5.50;71.70;;;;;;5034869;28;20463;-90
2021/12/01 04:16:40;;;;;;;1.57;1.47;;;5.50;71.20;;;;;;5035021;28;20181;-90
2021/12/01 04:19:06;;;;;;;1.43;1.33;;;5.60;71.60;;;;;;5034371;28;20271;-90
2021/12/01 04:21:32;;;;;;;1.00;1.00;;;5.60;69.60;;;;;;5034724;28;20184;-89
2021/12/01 04:23:58;;;;;;;1.10;1.00;;;5.60;70.70;;;;;;5034304;28;20469;-90
2021/12/01 04:26:26;;;;;;;1.27;1.17;;;5.60;69.80;;;;;;5035309;28;20412;-90
2021/12/01 04:28:53;;;;;;;1.60;1.07;;;5.60;69.90;;;;;;5033921;28;20473;-90
2021/12/01 04:31:20;;;;;;;1.80;1.60;;;5.60;69.30;;;;;;5033663;28;20510;-89
2021/12/01 04:33:46;;;;;;;1.43;1.27;;;5.60;68.20;;;;;;5033815;28;20428;-89
2021/12/01 04:36:12;;;;;;;1.47;1.37;;;5.60;69.20;;;;;;5034335;28;20935;-90
2021/12/01 04:38:38;;;;;;;1.33;1.23;;;5.70;68.30;;;;;;5033592;28;20428;-88
2021/12/01 04:41:05;;;;;;;1.23;1.13;;;5.70;70.00;;;;;;5033434;28;20517;-90
2021/12/01 04:43:30;;;;;;;1.50;1.40;;;5.70;69.20;;;;;;5035331;28;20545;-89
2021/12/01 04:46:00;;;;;;;1.70;1.60;;;5.70;69.20;;;;;;5033405;28;20418;-90
2021/12/01 04:48:29;;;;;;;1.23;0.90;;;5.70;68.70;;;;;;5033862;28;20660;-88
2021/12/01 04:50:55;;;;;;;1.30;1.20;;;5.70;68.30;;;;;;5033343;28;20439;-89
2021/12/01 04:53:21;;;;;;;2.60;1.53;;;5.70;68.30;;;;;;5034056;28;20445;-88
2021/12/01 04:55:47;;;;;;;1.40;1.13;;;5.70;67.30;;;;;;5035197;28;20423;-89
2021/12/01 04:58:13;;;;;;;0.90;0.90;;;5.80;67.30;;;;;;5033762;28;20431;-90
2021/12/01 05:00:39;;;;;;;1.33;1.20;;;5.80;68.40;;;;;;5035476;28;20190;-90
2021/12/01 05:03:05;;;;;;;1.60;1.50;;;5.80;68.40;;;;;;5035737;28;20234;-89
2021/12/01 05:05:31;;;;;;;1.50;1.40;;;5.80;67.80;;;;;;5035634;28;20271;-89
2021/12/01 05:07:56;;;;;;;1.50;1.00;;;5.80;67.30;;;;;;5035443;28;20447;-91
2021/12/01 05:10:22;;;;;;;1.67;1.20;;;5.90;67.40;;;;;;5035884;28;20168;-89
2021/12/01 05:12:48;;;;;;;1.47;1.37;;;5.90;67.70;;;;;;5037117;28;20958;-89
2021/12/01 05:15:14;;;;;;;1.10;1.00;;;5.90;67.50;;;;;;5033165;28;20180;-90
2021/12/01 05:17:40;;;;;;;1.20;1.10;;;5.90;67.10;;;;;;5032448;28;20184;-89
2021/12/01 05:20:07;;;;;;;1.10;1.00;;;5.90;67.30;;;;;;5031766;28;20419;-88
2021/12/01 05:22:33;;;;;;;1.67;1.30;;;6.00;65.40;;;;;;5019275;28;20236;-87
2021/12/01 05:24:59;;;;;;;1.87;1.10;;;6.00;66.50;;;;;;5028154;28;20494;-89
2021/12/01 05:27:25;;;;;;;0.80;0.80;;;6.10;63.80;;;;;;5049689;28;20172;-88
2021/12/01 05:29:51;;;;;;;0.90;0.90;;;6.20;64.60;;;;;;5050019;28;20423;-88
2021/12/01 05:32:17;;;;;;;0.90;0.90;;;6.10;64.70;;;;;;5050301;28;20195;-89
2021/12/01 05:34:43;;;;;;;1.37;1.27;;;6.10;64.20;;;;;;5050185;28;20226;-89
2021/12/01 05:37:09;;;;;;;1.10;0.80;;;6.10;64.80;;;;;;5044275;28;20427;-90
2021/12/01 05:39:39;;;;;;;1.00;1.00;;;6.10;64.70;;;;;;5049074;28;20181;-89
2021/12/01 05:42:06;;;;;;;1.07;0.97;;;6.20;64.30;;;;;;5024175;28;20434;-89
2021/12/01 05:44:32;;;;;;;1.43;0.70;;;6.20;64.40;;;;;;5017710;28;20514;-91
2021/12/01 05:47:02;;;;;;;0.80;0.80;;;6.20;63.30;;;;;;5014824;28;20764;-92
2021/12/01 05:49:27;;;;;;;0.60;0.60;;;6.30;63.30;;;;;;5014053;28;20470;-91
2021/12/01 05:51:53;;;;;;;1.03;0.90;;;6.30;62.80;;;;;;5032482;28;20986;-90
2021/12/01 05:54:19;;;;;;;0.70;0.67;;;6.30;62.30;;;;;;5035187;28;20203;-90
2021/12/01 05:56:45;;;;;;;1.37;1.27;;;6.30;63.50;;;;;;5034811;28;20180;-93
2021/12/01 05:59:11;;;;;;;0.70;0.70;;;6.30;62.30;;;;;;5034249;28;20931;-91
2021/12/01 06:01:36;;;;;;;1.00;0.90;;;6.30;63.10;;;;;;5032822;28;20208;-89
2021/12/01 06:04:02;;;;;;;1.50;0.73;;;6.30;64.10;;;;;;5022000;28;20283;-90
2021/12/01 06:06:28;;;;;;;1.20;1.10;;;6.30;64.00;;;;;;5025347;28;20187;-87
2021/12/01 06:08:55;;;;;;;2.63;1.03;;;6.30;64.30;;;;;;5031540;28;20169;-86
2021/12/01 06:11:21;;;;;;;0.90;0.90;;;6.30;65.20;;;;;;5018727;28;20869;-90
2021/12/01 06:13:50;;;;;;;1.23;1.13;;;6.30;66.40;;;;;;5012707;28;20427;-90
2021/12/01 06:16:19;;;;;;;0.87;0.87;;;6.30;67.10;;;;;;5011964;28;20420;-87
2021/12/01 06:18:45;;;;;;;2.37;1.40;;;6.40;65.60;;;;;;5023004;28;20454;-87
2021/12/01 06:21:11;;;;;;;1.00;0.90;;;6.40;67.10;;;;;;5032245;28;20430;-89
2021/12/01 06:23:36;;;;;;;1.63;0.90;;;6.30;67.40;;;;;;5032234;28;20204;-90
2021/12/01 06:26:02;;;;;;;2.00;0.90;;;6.40;66.80;;;;;;5049025;28;20655;-87
2021/12/01 06:28:28;;;;;;;0.70;0.70;;;6.50;63.20;;;;;;5049035;28;20280;-90
2021/12/01 06:30:54;;;;;;;1.57;0.90;;;6.50;63.30;;;;;;5024929;28;20213;-85
2021/12/01 06:33:19;;;;;;;1.37;0.90;;;6.60;63.90;;;;;;5026728;28;20419;-88
2021/12/01 06:35:49;;;;;;;0.80;0.77;;;6.60;62.80;;;;;;5019054;28;20180;-89
2021/12/01 06:38:16;;;;;;;0.70;0.67;;;6.60;62.50;;;;;;5013879;28;20653;-89
2021/12/01 06:40:41;;;;;;;1.63;0.90;;;6.60;63.70;;;;;;5027276;28;20508;-87
2021/12/01 06:43:07;;;;;;;1.00;1.00;;;6.70;63.50;;;;;;5048529;28;20969;-89
2021/12/01 06:45:33;;;;;;;0.90;0.90;;;6.70;62.90;;;;;;5032797;28;20423;-88
2021/12/01 06:47:58;;;;;;;0.80;0.80;;;6.70;61.80;;;;;;5049214;28;20552;-89
2021/12/01 06:50:24;;;;;;;0.67;0.67;;;6.70;63.90;;;;;;5049964;28;20187;-89
2021/12/01 06:52:50;;;;;;;1.00;0.90;;;6.70;61.20;;;;;;5049495;28;20180;-89
2021/12/01 06:55:16;;;;;;;1.13;1.10;;;6.80;60.70;;;;;;5032182;28;20176;-89
2021/12/01 06:57:42;;;;;;;0.83;0.83;;;6.80;60.40;;;;;;5053075;28;20180;-88
2021/12/01 07:00:11;;;;;;;1.63;1.10;;;6.80;60.50;;;;;;5050252;28;20446;-88
2021/12/01 07:02:39;;;;;;;2.10;0.80;;;6.80;60.50;;;;;;5032512;28;20187;-86
2021/12/01 07:05:07;;;;;;;2.20;1.67;;;6.80;60.30;;;;;;5052773;28;20492;-89
2021/12/01 07:07:32;;;;;;;1.77;1.37;;;6.80;61.10;;;;;;5053883;28;20400;-87
2021/12/01 07:09:58;;;;;;;3.40;3.20;;;7.00;59.40;;;;;;5036462;28;20514;-88
2021/12/01 07:12:28;;;;;;;1.10;1.10;;;6.90;61.10;;;;;;5036531;28;20172;-86
2021/12/01 07:14:54;;;;;;;1.30;1.20;;;6.90;59.30;;;;;;5035534;28;20522;-87
2021/12/01 07:17:20;;;;;;;1.23;0.90;;;6.90;60.10;;;;;;5035736;28;20469;-85
2021/12/01 07:19:46;;;;;;;1.33;1.00;;;7.00;59.40;;;;;;5035448;28;20208;-87
2021/12/01 07:22:12;;;;;;;1.20;1.10;;;7.00;59.40;;;;;;5035075;28;20426;-87
2021/12/01 07:24:38;;;;;;;0.90;0.90;;;7.00;59.40;;;;;;5036495;28;20469;-87
2021/12/01 07:27:04;;;;;;;1.73;1.23;;;7.00;58.90;;;;;;5051914;28;20214;-87
2021/12/01 07:29:30;;;;;;;2.67;0.83;;;7.00;57.80;;;;;;5050954;28;20172;-86
2021/12/01 07:31:56;;;;;;;4.70;3.07;;;7.00;58.80;;;;;;5033933;28;20508;-88
2021/12/01 07:34:22;;;;;;;1.17;0.80;;;7.10;57.70;;;;;;5051549;28;20499;-87
2021/12/01 07:36:48;;;;;;;0.83;0.80;;;7.10;58.00;;;;;;5051058;28;20419;-86
2021/12/01 07:39:14;;;;;;;0.80;0.80;;;7.10;57.20;;;;;;5051046;28;20168;-86
2021/12/01 07:41:39;;;;;;;1.53;1.43;;;7.10;58.80;;;;;;5050815;28;20545;-87
2021/12/01 07:44:05;;;;;;;1.07;0.80;;;7.10;58.80;;;;;;5051171;28;20548;-85
2021/12/01 07:46:31;;;;;;;0.93;0.80;;;7.10;59.50;;;;;;5050589;28;20476;-88
2021/12/01 07:48:56;;;;;;;0.93;0.77;;;7.10;58.50;;;;;;5051167;28;20176;-86
2021/12/01 07:51:22;;;;;;;0.60;0.60;;;7.10;57.70;;;;;;5043250;28;20235;-86
2021/12/01 07:53:52;;;;;;;1.07;0.80;;;7.10;58.10;;;;;;5036755;28;20208;-88
2021/12/01 07:56:18;;;;;;;1.10;0.73;;;7.20;57.80;;;;;;5036090;28;20177;-90
2021/12/01 07:58:44;;;;;;;1.53;0.77;;;7.20;57.20;;;;;;5036478;28;20407;-89
2021/12/01 08:01:09;;;;;;;1.03;1.00;;;7.20;56.80;;;;;;5032119;28;20208;-90
2021/12/01 08:03:37;;;;;;;3.23;1.00;;;7.30;56.70;;;;;;5051587;28;20232;-91
2021/12/01 08:06:03;;;;;;;1.23;0.77;;;7.30;56.80;;;;;;5035500;28;20177;-89
2021/12/01 08:08:29;;;;;;;0.87;0.60;;;7.30;56.70;;;;;;5051651;28;20513;-90
2021/12/01 08:10:55;;;;;;;0.97;0.60;;;7.30;58.10;;;;;;5051049;28;20407;-88
2021/12/01 08:13:21;;;;;;;0.87;0.83;;;7.30;57.10;;;;;;5034386;28;20925;-89
2021/12/01 08:15:47;;;;;;;0.70;0.70;;;7.30;56.30;;;;;;5035753;28;20780;-90
2021/12/01 08:18:14;;;;;;;2.87;0.60;;;7.30;56.40;;;;;;5036973;28;20419;-89
2021/12/01 08:20:40;;;;;;;1.37;0.60;;;7.40;56.00;;;;;;5036518;28;20415;-90
2021/12/01 08:23:06;;;;;;;2.00;0.90;;;7.40;56.60;;;;;;5035652;28;20787;-90
2021/12/01 08:25:32;;;;;;;0.70;0.60;;;7.40;57.00;;;;;;5035625;28;20184;-90
2021/12/01 08:28:01;;;;;;;0.70;0.70;;;7.40;56.90;;;;;;5035473;28;20180;-89
2021/12/01 08:30:27;;;;;;;0.70;0.57;;;7.50;57.10;;;;;;5035826;28;20240;-90
2021/12/01 08:32:54;;;;;;;0.70;0.60;;;7.50;56.50;;;;;;5035765;28;20506;-89
2021/12/01 08:35:20;;;;;;;0.63;0.60;;;7.50;56.40;;;;;;5035635;28;20567;-90
2021/12/01 08:37:46;;;;;;;0.70;0.70;;;7.50;56.50;;;;;;5036499;28;20411;-89
2021/12/01 08:40:14;;;;;;;0.80;0.70;;;7.60;57.60;;;;;;5035062;28;20419;-89
2021/12/01 08:42:40;;;;;;;0.60;0.60;;;7.60;56.50;;;;;;5035788;28;20923;-89
2021/12/01 08:45:45;;;;;;;0.93;0.80;;;7.60;56.60;;;;;;5035703;28;20498;-89
2021/12/01 08:51:33;;;;;;;0.70;0.60;;;7.70;57.00;;;;;;5037091;28;20443;-90
2021/12/01 08:54:02;;;;;;;0.70;0.50;;;7.70;56.80;;;;;;5035972;28;20430;-89
2021/12/01 08:56:28;;;;;;;1.27;0.70;;;7.80;57.20;;;;;;5035928;28;20435;-89
2021/12/01 08:59:03;;;;;;;1.00;0.90;;;7.80;56.20;;;;;;5034866;28;20473;-89
2021/12/01 09:01:28;;;;;;;0.70;0.60;;;7.80;57.00;;;;;;5036189;28;20176;-89
2021/12/01 09:03:56;;;;;;;0.87;0.80;;;8.00;55.50;;;;;;5035061;28;20459;-89
2021/12/01 09:06:22;;;;;;;1.43;0.80;;;8.10;55.10;;;;;;5035428;28;20173;-89
2021/12/01 09:08:51;;;;;;;0.60;0.40;;;8.20;55.50;;;;;;5035674;28;20423;-89
2021/12/01 09:11:16;;;;;;;1.40;0.60;;;8.30;55.00;;;;;;5035957;28;20263;-89
2021/12/01 09:13:42;;;;;;;0.60;0.50;;;8.30;55.70;;;;;;5037987;28;20527;-88
2021/12/01 09:16:08;;;;;;;1.83;0.60;;;8.40;53.70;;;;;;5036291;28;20177;-88
2021/12/01 09:18:37;;;;;;;0.60;0.43;;;8.60;54.20;;;;;;5037017;28;20188;-89
2021/12/01 09:21:04;;;;;;;0.80;0.80;;;8.80;52.70;;;;;;5036751;28;20177;-89
2021/12/01 09:23:30;;;;;;;1.07;0.50;;;8.80;53.20;;;;;;5035048;28;21065;-89
2021/12/01 09:25:57;;;;;;;1.37;0.80;;;8.90;53.40;;;;;;5036709;28;20407;-86
2021/12/01 09:28:24;;;;;;;0.80;0.57;;;8.90;53.00;;;;;;5053742;28;20412;-88
2021/12/01 09:30:55;;;;;;;1.13;0.60;;;9.00;52.60;;;;;;5036788;28;20495;-89
2021/12/01 09:33:21;;;;;;;1.17;0.70;;;9.00;51.50;;;;;;5052652;28;20510;-89
2021/12/01 09:35:48;;;;;;;0.70;0.40;;;9.00;51.50;;;;;;5052176;28;20416;-89
2021/12/01 09:38:15;;;;;;;0.80;0.60;;;8.90;51.40;;;;;;5036284;28;20942;-89
2021/12/01 09:40:46;;;;;;;0.50;0.50;;;8.80;51.80;;;;;;5052153;28;20789;-88
2021/12/01 09:43:13;;;;;;;0.60;0.50;;;8.80;52.00;;;;;;5033758;28;20433;-87
2021/12/01 09:45:40;;;;;;;1.77;0.97;;;8.80;53.10;;;;;;5034366;28;20416;-89
2021/12/01 09:48:05;;;;;;;0.80;0.80;;;8.80;52.80;;;;;;5035340;28;20414;-90
2021/12/01 09:50:31;;;;;;;0.70;0.57;;;8.80;53.20;;;;;;5035891;28;20498;-90
2021/12/01 09:52:57;;;;;;;0.80;0.60;;;8.90;52.00;;;;;;5036893;28;20177;-91
2021/12/01 09:55:23;;;;;;;0.60;0.40;;;8.80;52.10;;;;;;5036717;28;20199;-89
2021/12/01 09:58:00;;;;;;;0.77;0.50;;;8.80;53.00;;;;;;5035434;28;20181;-89
2021/12/01 10:00:28;;;;;;;0.93;0.60;;;8.90;52.80;;;;;;5035733;28;20435;-90
2021/12/01 10:02:55;;;;;;;1.17;0.50;;;8.90;52.00;;;;;;5033755;28;20484;-89
2021/12/01 10:05:46;;;;;;;0.73;0.57;;;8.90;53.60;;;;;;5033477;28;20913;-89
2021/12/01 10:08:23;;;;;;;1.57;0.57;;;9.00;51.60;;;;;;5032591;28;20773;-88
2021/12/01 10:10:51;;;;;;;0.80;0.50;;;8.90;52.50;;;;;;5032456;28;20813;-90
2021/12/01 10:13:25;;;;;;;1.30;0.70;;;9.00;51.60;;;;;;5033123;28;20415;-89
2021/12/01 10:15:53;;;;;;;0.53;0.50;;;9.10;52.10;;;;;;5032636;28;20423;-89
2021/12/01 10:18:18;;;;;;;0.80;0.50;;;9.10;51.60;;;;;;5032259;28;20412;-90
2021/12/01 10:21:02;;;;;;;1.10;1.00;;;9.10;52.20;;;;;;5032227;28;20561;-90
2021/12/01 10:23:28;;;;;;;0.70;0.63;;;9.00;52.50;;;;;;5031973;28;20222;-90
2021/12/01 10:25:54;;;;;;;2.07;1.70;;;9.20;51.70;;;;;;5032609;28;20419;-90
2021/12/01 10:28:57;;;;;;;1.83;0.80;;;9.20;51.70;;;;;;5033390;28;20420;-90
2021/12/01 10:31:40;;;;;;;0.80;0.60;;;9.20;52.20;;;;;;4994460;28;20808;-90
2021/12/01 10:34:26;;;;;;;0.87;0.87;;;9.30;50.90;;;;;;5029205;28;20426;-90
2021/12/01 10:37:13;;;;;;;2.80;2.53;;;9.30;51.80;;;;;;5048975;28;20756;-90
2021/12/01 10:39:44;;;;;;;1.33;0.67;;;9.30;52.50;;;;;;5050891;28;20470;-89
2021/12/01 10:42:15;;;;;;;1.03;0.77;;;9.40;51.80;;;;;;5051374;28;20435;-89
2021/12/01 10:45:03;;;;;;;0.83;0.60;;;9.30;52.00;;;;;;5050246;28;20455;-89
2021/12/01 10:47:40;;;;;;;0.50;0.40;;;9.40;51.10;;;;;;5050857;28;20499;-90
2021/12/01 10:50:15;;;;;;;0.80;0.67;;;9.40;51.80;;;;;;5052252;28;20408;-90
2021/12/01 10:52:49;;;;;;;2.00;0.60;;;9.50;51.30;;;;;;5057540;28;20391;-89
2021/12/01 10:55:20;;;;;;;0.73;0.73;;;9.50;51.90;;;;;;5051671;28;20495;-89
2021/12/01 10:57:49;;;;;;;0.60;0.50;;;9.40;51.80;;;;;;5050307;28;20430;-91
2021/12/01 11:00:19;;;;;;;0.60;0.50;;;9.50;51.90;;;;;;5050391;28;20451;-90
2021/12/01 11:02:45;;;;;;;0.80;0.60;;;9.50;51.90;;;;;;5035014;28;20495;-89
2021/12/01 11:05:32;;;;;;;0.70;0.60;;;9.50;52.00;;;;;;5050810;28;20463;-90
2021/12/01 11:08:18;;;;;;;1.73;1.33;;;9.60;51.10;;;;;;5051079;28;20490;-90
2021/12/01 11:10:46;;;;;;;2.87;0.67;;;9.60;52.00;;;;;;5033501;28;20411;-90
2021/12/01 11:13:12;;;;;;;0.70;0.70;;;9.60;52.10;;;;;;5049657;28;20412;-91
2021/12/01 11:15:43;;;;;;;1.53;0.50;;;9.60;52.50;;;;;;5049775;28;20423;-91
2021/12/01 11:18:20;;;;;;;0.80;0.60;;;9.50;54.00;;;;;;5049441;28;20415;-91
2021/12/01 11:20:48;;;;;;;1.70;0.80;;;9.50;54.30;;;;;;5049174;28;20923;-90
2021/12/01 11:23:27;;;;;;;1.30;0.80;;;9.50;56.10;;;;;;5033498;28;20434;-90
2021/12/01 11:26:10;;;;;;;0.60;0.50;;;9.50;56.40;;;;;;5032461;28;20427;-92
2021/12/01 11:28:46;;;;;;;0.67;0.50;;;9.40;56.80;;;;;;5032309;28;20411;-92
2021/12/01 11:31:36;;;;;;;1.13;0.70;;;9.50;56.30;;;;;;5032344;28;20415;-91
2021/12/01 11:34:08;;;;;;;0.90;0.73;;;9.50;57.40;;;;;;5033030;28;20419;-89
2021/12/01 11:36:37;;;;;;;0.63;0.60;;;9.50;56.10;;;;;;5031843;28;20424;-91
2021/12/01 11:39:10;;;;;;;0.90;0.80;;;9.50;57.00;;;;;;5032332;28;20415;-90
2021/12/01 11:41:41;;;;;;;0.60;0.50;;;9.50;56.50;;;;;;5033888;28;21053;-90
2021/12/01 11:44:07;;;;;;;0.80;0.50;;;9.60;57.00;;;;;;5036341;28;20808;-90
2021/12/01 11:46:33;;;;;;;2.07;1.00;;;9.60;56.00;;;;;;5038720;28;20424;-90
2021/12/01 11:49:04;;;;;;;0.80;0.80;;;9.60;56.50;;;;;;5037840;28;20161;-90
2021/12/01 11:51:30;;;;;;;4.80;1.20;;;9.70;56.10;;;;;;5036628;28;20929;-90
2021/12/01 11:54:04;;;;;;;1.30;1.20;;;9.70;56.60;;;;;;5037897;28;20501;-90
2021/12/01 11:56:33;;;;;;;0.77;0.70;;;9.80;56.00;;;;;;5039244;28;20177;-90
2021/12/01 11:59:19;;;;;;;0.70;0.60;;;9.90;56.10;;;;;;5038557;28;20786;-90
2021/12/01 12:01:57;;;;;;;0.63;0.50;;;9.90;56.00;;;;;;5026999;28;20973;-91
2021/12/01 12:04:28;;;;;;;0.60;0.60;;;9.80;56.30;;;;;;5038175;28;20491;-90
2021/12/01 12:07:00;;;;;;;0.70;0.50;;;9.90;56.30;;;;;;5035467;28;20972;-91
2021/12/01 12:09:27;;;;;;;0.50;0.50;;;9.90;55.70;;;;;;5034663;28;20922;-90
2021/12/01 12:11:58;;;;;;;0.60;0.50;;;10.00;54.50;;;;;;5036106;28;20763;-90
2021/12/01 12:14:48;;;;;;;0.63;0.57;;;9.90;56.10;;;;;;5036319;28;20419;-90
2021/12/01 12:17:22;;;;;;;1.17;0.50;;;9.90;57.00;;;;;;5035838;28;20440;-90
2021/12/01 12:20:13;;;;;;;1.43;0.80;;;9.90;55.70;;;;;;5035656;28;20423;-89
2021/12/01 12:22:44;;;;;;;1.73;0.70;;;10.00;55.40;;;;;;5035867;28;20415;-92
2021/12/01 12:25:31;;;;;;;0.73;0.73;;;10.00;56.60;;;;;;5036734;28;20463;-90
2021/12/01 12:27:57;;;;;;;0.60;0.53;;;10.00;55.50;;;;;;5037653;28;20933;-92
2021/12/01 12:30:34;;;;;;;4.17;0.60;;;9.90;56.00;;;;;;5037500;28;20411;-92
2021/12/01 12:33:21;;;;;;;0.70;0.60;;;10.00;55.90;;;;;;5039796;28;20165;-88
2021/12/01 12:35:50;;;;;;;1.10;0.60;;;9.90;56.80;;;;;;5035722;28;20495;-88
2021/12/01 12:38:17;;;;;;;0.67;0.63;;;9.80;55.70;;;;;;5035739;28;20784;-88
2021/12/01 12:40:43;;;;;;;0.80;0.77;;;9.80;55.90;;;;;;5035633;28;20434;-89
2021/12/01 12:43:14;;;;;;;1.00;0.70;;;9.80;56.80;;;;;;5033993;28;20411;-89
2021/12/01 12:46:25;;;;;;;0.80;0.70;;;9.80;57.40;;;;;;5036088;28;20431;-93
2021/12/01 12:48:52;;;;;;;0.90;0.80;;;9.80;57.90;;;;;;5036013;28;20407;-90
2021/12/01 12:51:33;;;;;;;1.10;0.90;;;9.70;58.70;;;;;;5035407;28;20403;-90
2021/12/01 12:54:06;;;;;;;1.40;0.87;;;9.70;58.50;;;;;;5035355;28;20426;-89
2021/12/01 12:56:40;;;;;;;1.07;0.73;;;9.50;58.80;;;;;;5035214;28;20404;-89
2021/12/01 12:59:19;;;;;;;0.83;0.77;;;9.50;59.70;;;;;;5037448;28;20383;-88
2021/12/01 13:01:49;;;;;;;1.00;0.90;;;9.40;59.80;;;;;;5034058;28;20466;-88
2021/12/01 13:04:54;;;;;;;1.10;1.00;;;9.40;60.50;;;;;;5034557;28;20857;-87
2021/12/01 13:07:32;;;;;;;1.03;0.93;;;9.40;60.70;;;;;;5036207;28;20408;-89
2021/12/01 13:10:23;;;;;;;1.73;1.17;;;9.40;61.50;;;;;;5030817;28;20455;-89
2021/12/01 13:13:21;;;;;;;1.10;0.97;;;9.30;63.20;;;;;;5031615;28;20400;-89
2021/12/01 13:15:49;;;;;;;1.33;1.00;;;9.30;62.80;;;;;;5030045;28;20500;-89
2021/12/01 13:18:15;;;;;;;0.90;0.90;;;9.30;63.60;;;;;;5031018;28;20500;-88
2021/12/01 13:20:58;;;;;;;1.23;1.10;;;9.30;63.40;;;;;;5031479;28;20417;-88
2021/12/01 13:24:00;;;;;;;1.10;0.97;;;9.30;63.40;;;;;;5031462;28;20675;-89